createdAt,value
2018-11-22T00:00:23.567Z,87.70
2018-11-22T00:03:11.992Z,96.57
2018-11-22T00:05:59.534Z,85.37
2018-11-22T00:08:46.788Z,80.70
2018-11-22T00:11:33.993Z,86.13
2018-11-22T00:14:21.575Z,81.10
2018-11-22T00:17:09.445Z,79.87
2018-11-22T00:19:56.586Z,79.63
2018-11-22T00:22:43.966Z,83.73
2018-11-22T00:25:31.176Z,85.73
2018-11-22T00:28:18.683Z,76.53
2018-11-22T00:31:05.857Z,82.60
2018-11-22T00:33:53.121Z,87.00
2018-11-22T00:36:40.816Z,83.67
2018-11-22T00:39:27.829Z,91.47
2018-11-22T00:42:15.199Z,93.90
2018-11-22T00:45:02.303Z,81.57
2018-11-22T00:47:50.141Z,95.23
2018-11-22T00:50:37.226Z,84.97
2018-11-22T00:53:24.534Z,85.83
2018-11-22T00:56:11.609Z,84.57
2018-11-22T00:58:59.161Z,82.37
2018-11-22T01:01:46.157Z,71.53
2018-11-22T01:04:33.482Z,90.67
2018-11-22T01:07:20.689Z,82.30
2018-11-22T12:18:18.927Z,119.73
2018-11-22T12:20:53.543Z,113.27
2018-11-22T12:23:28.105Z,119.60
2018-11-22T12:26:02.650Z,122.80
2018-11-22T12:28:37.278Z,135.93
2018-11-22T12:31:11.852Z,116.67
2018-11-22T12:33:50.653Z,112.30
2018-11-22T12:36:29.250Z,128.60
2018-11-22T12:39:04.131Z,122.53
2018-11-22T12:41:38.569Z,127.27
2018-11-22T12:44:13.178Z,125.80
2018-11-22T12:46:47.714Z,116.07
2018-11-22T12:49:22.324Z,129.13
2018-11-22T12:51:56.734Z,135.63
2018-11-22T12:54:31.419Z,122.20
2018-11-22T12:57:06.028Z,109.23
2018-11-22T12:59:40.610Z,133.03
2018-11-22T13:02:18.617Z,142.17
2018-11-22T13:04:53.182Z,117.93
2018-11-22T13:07:27.659Z,123.80
2018-11-22T13:10:02.350Z,129.17
2018-11-22T13:12:36.994Z,123.27
2018-11-22T13:15:13.337Z,116.10
2018-11-22T13:17:47.796Z,146.53
2018-11-22T13:20:23.077Z,131.60
2018-11-22T13:22:57.579Z,139.50
2018-11-22T13:25:32.225Z,140.63
2018-11-22T13:28:06.842Z,116.13
2018-11-22T13:30:41.509Z,123.67
2018-11-22T13:33:16.044Z,145.03
2018-11-22T13:35:50.544Z,109.57
2018-11-22T13:38:25.214Z,135.13
2018-11-22T13:40:59.662Z,127.87
2018-11-22T13:43:34.199Z,128.27
2018-11-22T13:46:08.949Z,129.13
2018-11-22T13:48:43.602Z,131.37
2018-11-22T13:51:18.010Z,133.60
2018-11-22T13:53:52.539Z,135.43
2018-11-22T13:56:27.135Z,133.07
2018-11-22T13:59:01.807Z,138.10
2018-11-22T14:01:36.254Z,131.70
2018-11-22T14:04:10.992Z,136.93
2018-11-22T14:06:45.736Z,158.43
2018-11-22T14:09:20.189Z,146.10
2018-11-22T14:11:54.742Z,137.37
2018-11-22T14:14:35.973Z,156.70
2018-11-22T14:17:10.499Z,164.73
2018-11-22T14:19:45.084Z,171.27
2018-11-22T14:22:19.538Z,133.90
2018-11-22T14:24:54.326Z,139.77
2018-11-22T14:27:28.872Z,162.13
2018-11-22T14:30:03.655Z,175.73
2018-11-22T14:32:38.635Z,138.23
2018-11-22T14:35:14.728Z,162.87
2018-11-22T14:37:49.172Z,164.77
2018-11-22T14:40:27.083Z,151.83
2018-11-22T14:43:01.705Z,174.63
2018-11-22T14:45:36.413Z,167.87
2018-11-22T14:48:10.981Z,164.40
2018-11-22T14:50:51.652Z,186.87
2018-11-22T14:53:26.226Z,176.43
2018-11-22T14:56:00.715Z,186.67
2018-11-22T14:58:35.331Z,168.50
2018-11-22T15:01:09.856Z,174.93
2018-11-22T15:03:44.396Z,167.80
2018-11-22T15:06:19.002Z,174.30
2018-11-22T15:08:53.458Z,158.77
2018-11-22T15:11:28.058Z,172.60
2018-11-22T15:14:02.571Z,181.83
2018-11-22T15:16:37.220Z,149.33
2018-11-22T15:19:11.915Z,162.30
2018-11-22T15:21:46.586Z,209.10
2018-11-22T15:24:21.192Z,171.93
2018-11-22T15:26:55.840Z,185.30
2018-11-22T15:29:36.920Z,190.00
2018-11-22T15:32:11.287Z,210.30
2018-11-22T15:34:45.909Z,173.30
2018-11-22T15:37:20.388Z,166.07
2018-11-22T15:39:54.688Z,196.67
2018-11-22T15:42:29.329Z,189.47
2018-11-22T15:45:03.791Z,179.00
2018-11-22T15:47:38.390Z,157.47
2018-11-22T15:50:14.381Z,181.07
2018-11-22T15:52:48.904Z,145.77
2018-11-22T15:55:24.151Z,177.37
2018-11-22T15:58:00.035Z,164.27
2018-11-22T16:00:35.339Z,179.33
2018-11-22T16:03:09.811Z,180.67
2018-11-22T16:05:44.551Z,158.63
2018-11-22T16:08:19.197Z,176.93
2018-11-22T16:10:54.150Z,173.57
2018-11-22T16:13:28.701Z,173.73
2018-11-22T16:16:03.443Z,137.97
2018-11-22T16:18:40.959Z,156.13
2018-11-22T16:21:15.600Z,153.17
2018-11-22T16:23:50.194Z,158.60
2018-11-22T16:26:24.851Z,145.77
2018-11-22T16:28:59.362Z,148.43
2018-11-22T16:31:33.871Z,155.40
2018-11-22T16:34:08.598Z,147.23
2018-11-22T16:36:43.406Z,150.23
2018-11-22T16:39:17.903Z,139.03
2018-11-22T16:41:52.637Z,125.50
2018-11-22T16:44:26.954Z,145.27
2018-11-22T16:47:01.603Z,109.47
2018-11-22T16:49:36.008Z,155.97
2018-11-22T16:52:10.530Z,151.93
2018-11-22T16:54:44.983Z,141.37
2018-11-22T16:57:26.359Z,149.17
2018-11-22T17:00:00.993Z,151.17
2018-11-22T17:02:35.404Z,170.03
2018-11-22T17:05:10.078Z,152.50
2018-11-22T17:07:45.111Z,133.53
2018-11-22T17:10:21.262Z,146.33
2018-11-22T17:12:56.882Z,142.67
2018-11-22T17:15:33.835Z,163.83
2018-11-22T17:18:10.659Z,127.80
2018-11-22T17:20:45.091Z,151.03
2018-11-22T17:23:19.662Z,154.73
2018-11-22T17:25:54.146Z,136.43
2018-11-22T17:28:28.779Z,134.93
2018-11-22T17:31:03.346Z,136.57
2018-11-22T17:33:37.951Z,147.07
2018-11-22T17:36:12.487Z,149.63
2018-11-22T17:38:47.128Z,147.57
2018-11-22T17:41:21.736Z,146.33
2018-11-22T17:43:56.319Z,126.97
2018-11-22T17:46:30.855Z,146.23
2018-11-22T17:49:05.946Z,142.10
2018-11-22T17:51:40.415Z,162.17
2018-11-22T17:54:15.058Z,159.33
2018-11-22T17:56:49.562Z,145.37
2018-11-22T17:59:24.107Z,137.57
2018-11-22T18:01:58.688Z,134.50
2018-11-22T18:04:33.196Z,133.43
2018-11-22T18:07:07.850Z,147.70
2018-11-22T18:09:42.323Z,179.77
2018-11-22T18:12:17.539Z,141.33
2018-11-22T18:14:52.170Z,158.43
2018-11-22T18:17:26.943Z,150.73
2018-11-22T18:20:01.292Z,160.60
2018-11-22T18:22:35.774Z,151.37
2018-11-22T18:25:13.854Z,143.67
2018-11-22T18:27:48.315Z,170.70
2018-11-22T18:30:32.734Z,143.83
2018-11-22T18:33:08.208Z,129.73
2018-11-22T18:35:42.726Z,142.47
2018-11-22T18:38:17.318Z,139.70
2018-11-22T18:40:52.159Z,150.33
2018-11-22T18:43:26.806Z,127.60
2018-11-22T18:46:01.587Z,156.20
2018-11-22T18:48:36.283Z,138.70
2018-11-22T18:51:10.821Z,137.67
2018-11-22T18:53:45.541Z,135.63
2018-11-22T18:56:20.032Z,135.47
2018-11-22T18:58:54.544Z,140.57
2018-11-22T19:01:28.982Z,141.10
2018-11-22T19:04:03.742Z,152.37
2018-11-22T19:06:38.271Z,130.43
2018-11-22T19:09:12.884Z,147.03
2018-11-22T19:11:47.534Z,144.47
2018-11-22T19:14:22.046Z,126.77
2018-11-22T19:16:56.547Z,132.90
2018-11-22T19:19:30.978Z,129.90
2018-11-22T19:22:05.511Z,133.43
2018-11-22T19:24:40.376Z,122.30
2018-11-22T19:27:15.327Z,150.53
2018-11-22T19:29:50.086Z,130.27
2018-11-22T19:32:25.712Z,133.33
2018-11-22T19:35:00.299Z,138.40
2018-11-22T19:37:34.858Z,141.97
2018-11-22T19:40:13.174Z,129.33
2018-11-22T19:42:49.154Z,127.70
2018-11-22T19:45:27.282Z,147.20
2018-11-22T19:48:01.925Z,145.40
2018-11-22T19:50:36.585Z,151.83
2018-11-22T19:53:12.654Z,139.57
2018-11-22T19:55:47.114Z,137.90
2018-11-22T19:58:22.051Z,137.70
2018-11-22T20:00:56.766Z,135.13
2018-11-22T20:03:31.323Z,149.57
2018-11-22T20:06:05.805Z,151.33
2018-11-22T20:08:40.727Z,145.87
2018-11-22T20:11:15.559Z,152.37
2018-11-22T20:13:51.642Z,143.07
2018-11-22T20:16:26.231Z,125.27
2018-11-22T20:19:00.972Z,153.43
2018-11-22T20:21:35.542Z,150.67
2018-11-22T20:24:10.991Z,140.93
2018-11-22T20:26:45.607Z,125.60
2018-11-22T20:29:20.200Z,144.63
2018-11-22T20:31:54.718Z,140.73
2018-11-22T20:34:29.159Z,145.27
2018-11-22T20:37:03.695Z,159.53
2018-11-22T20:39:38.614Z,145.43
2018-11-22T20:42:13.239Z,147.60
2018-11-22T20:44:47.921Z,136.57
2018-11-22T20:47:23.808Z,143.43
2018-11-22T20:49:58.295Z,135.70
2018-11-22T20:52:32.944Z,131.50
2018-11-22T20:55:09.676Z,151.40
2018-11-22T20:57:45.132Z,156.57
2018-11-22T21:00:20.807Z,117.93
2018-11-22T21:02:55.526Z,150.13
2018-11-22T21:05:30.498Z,148.87
2018-11-22T21:08:05.207Z,168.03
2018-11-22T21:10:39.571Z,153.70
2018-11-22T21:13:14.143Z,137.70
2018-11-22T21:15:48.812Z,137.63
2018-11-22T21:18:23.480Z,138.30
2018-11-22T21:20:57.960Z,126.83
2018-11-22T21:23:32.644Z,146.37
2018-11-22T21:26:14.183Z,134.00
2018-11-22T21:28:41.513Z,125.77
2018-11-22T21:31:16.153Z,118.10
2018-11-22T21:33:50.768Z,132.10
2018-11-22T21:36:25.345Z,142.73
2018-11-22T21:38:59.751Z,150.13
2018-11-22T21:41:34.477Z,171.90
2018-11-22T21:44:09.220Z,145.63
2018-11-22T21:46:43.724Z,125.17
2018-11-22T21:49:18.335Z,148.70
2018-11-22T21:51:52.802Z,120.93
2018-11-22T21:54:27.442Z,143.73
2018-11-22T21:57:02.032Z,146.53
2018-11-22T21:59:36.504Z,139.07
2018-11-22T22:02:10.962Z,127.23
2018-11-22T22:04:45.484Z,150.93
2018-11-22T22:07:20.119Z,129.97
2018-11-22T22:09:55.147Z,144.67
2018-11-22T22:12:29.706Z,134.37
2018-11-22T22:15:05.012Z,132.00
2018-11-22T22:17:40.035Z,131.07
2018-11-22T22:20:17.000Z,116.47
2018-11-22T22:22:51.601Z,134.53
2018-11-22T22:25:26.806Z,116.73
2018-11-22T22:28:02.528Z,138.90
2018-11-22T22:30:36.927Z,113.97
2018-11-22T22:33:11.595Z,112.03
2018-11-22T22:35:46.165Z,132.00
2018-11-22T22:38:20.807Z,113.20
2018-11-22T22:40:55.406Z,128.40
2018-11-22T22:43:30.019Z,125.43
2018-11-22T22:46:04.698Z,129.20
2018-11-22T22:48:39.180Z,119.73
2018-11-22T22:51:13.718Z,125.33
2018-11-22T22:53:48.462Z,106.40
2018-11-22T22:56:23.195Z,125.63
2018-11-22T22:58:57.890Z,118.80
2018-11-22T23:01:32.655Z,137.87
2018-11-22T23:04:07.312Z,123.50
2018-11-22T23:06:42.012Z,125.63
2018-11-22T23:09:16.651Z,124.60
2018-11-22T23:11:56.863Z,120.77
2018-11-22T23:14:31.611Z,105.57
2018-11-22T23:17:06.122Z,126.50
2018-11-22T23:19:41.535Z,115.17
2018-11-22T23:22:16.658Z,132.47
2018-11-22T23:24:51.320Z,132.90
2018-11-22T23:27:25.989Z,109.93
2018-11-22T23:30:00.444Z,127.47
2018-11-22T23:32:34.948Z,124.73
2018-11-22T23:35:09.964Z,113.70
2018-11-22T23:37:44.588Z,115.70
2018-11-22T23:40:21.301Z,136.30
2018-11-22T23:42:55.805Z,145.37
2018-11-22T23:45:31.370Z,130.43
2018-11-22T23:48:06.727Z,127.93
2018-11-22T23:50:41.370Z,125.07
2018-11-22T23:53:16.226Z,139.80
2018-11-22T23:55:50.740Z,129.17
2018-11-22T23:58:25.305Z,128.53
